createdAt,value
2022-10-08T00:02:05.642Z,18.50
2022-10-08T00:04:34.141Z,18.50
2022-10-08T00:07:02.580Z,18.50
2022-10-08T00:09:31.040Z,18.60
2022-10-08T00:12:00.865Z,18.60
2022-10-08T00:14:29.336Z,18.60
2022-10-08T00:16:57.782Z,18.60
2022-10-08T00:19:28.343Z,18.60
2022-10-08T00:21:57.104Z,18.60
2022-10-08T00:24:25.445Z,18.60
2022-10-08T00:26:53.866Z,18.60
2022-10-08T00:29:23.690Z,18.60
2022-10-08T00:31:52.723Z,18.60
2022-10-08T00:34:23.165Z,18.60
2022-10-08T00:36:52.127Z,18.60
2022-10-08T00:39:21.767Z,18.50
2022-10-08T00:41:52.326Z,18.40
2022-10-08T00:44:39.177Z,18.40
2022-10-08T00:47:14.921Z,18.40
2022-10-08T00:49:44.026Z,18.40
2022-10-08T00:52:12.590Z,18.40
2022-10-08T00:54:41.008Z,18.50
2022-10-08T00:57:10.115Z,18.50
2022-10-08T00:59:38.982Z,18.50
2022-10-08T01:02:08.879Z,18.50
2022-10-08T01:04:38.903Z,18.50
2022-10-08T01:07:12.921Z,18.50
2022-10-08T01:09:43.479Z,18.50
2022-10-08T01:12:15.907Z,18.40
2022-10-08T01:14:48.826Z,18.40
2022-10-08T01:17:19.593Z,18.30
2022-10-08T01:20:12.125Z,18.30
2022-10-08T01:22:47.320Z,18.40
2022-10-08T01:25:33.833Z,18.30
2022-10-08T01:28:08.813Z,18.30
2022-10-08T01:30:40.096Z,18.30
2022-10-08T01:33:12.542Z,18.30
2022-10-08T01:35:44.460Z,18.30
2022-10-08T01:38:14.789Z,18.40
2022-10-08T01:40:44.739Z,18.40
2022-10-08T01:43:16.047Z,18.30
2022-10-08T01:45:46.112Z,18.30
2022-10-08T01:48:17.460Z,18.30
2022-10-08T01:50:47.802Z,18.40
2022-10-08T01:53:18.318Z,18.40
2022-10-08T01:55:49.045Z,18.50
2022-10-08T01:58:20.551Z,18.50
2022-10-08T02:00:51.139Z,18.50
2022-10-08T02:03:19.637Z,18.50
2022-10-08T02:05:51.535Z,18.50
2022-10-08T02:08:20.020Z,18.50
2022-10-08T02:10:48.411Z,18.50
2022-10-08T02:13:18.287Z,18.50
2022-10-08T02:15:50.881Z,18.50
2022-10-08T02:18:21.825Z,18.50
2022-10-08T02:20:52.393Z,18.40
2022-10-08T02:23:25.305Z,18.40
2022-10-08T02:25:56.063Z,18.40
2022-10-08T02:28:30.950Z,18.50
2022-10-08T02:31:02.766Z,18.40
2022-10-08T02:33:33.123Z,18.40
2022-10-08T02:36:03.709Z,18.40
2022-10-08T02:38:34.196Z,18.40
2022-10-08T02:41:03.987Z,18.30
2022-10-08T02:43:35.764Z,18.20
2022-10-08T02:46:06.359Z,18.20
2022-10-08T02:48:36.911Z,18.20
2022-10-08T02:51:06.948Z,18.00
2022-10-08T02:53:37.979Z,18.00
2022-10-08T02:56:10.802Z,18.00
2022-10-08T02:58:41.911Z,17.90
2022-10-08T03:01:11.724Z,17.80
2022-10-08T03:03:43.521Z,17.80
2022-10-08T03:06:13.250Z,17.80
2022-10-08T03:08:43.704Z,17.90
2022-10-08T03:11:12.458Z,17.90
2022-10-08T03:13:44.139Z,17.90
2022-10-08T03:16:14.260Z,18.00
2022-10-08T03:18:42.892Z,17.90
2022-10-08T03:21:13.056Z,17.90
2022-10-08T03:23:41.546Z,17.90
2022-10-08T03:26:09.963Z,17.80
2022-10-08T03:28:38.386Z,17.80
2022-10-08T03:31:08.468Z,17.80
2022-10-08T03:33:36.819Z,17.80
2022-10-08T03:36:05.562Z,17.70
2022-10-08T03:38:35.023Z,17.60
2022-10-08T03:41:03.395Z,17.60
2022-10-08T03:43:32.545Z,17.70
2022-10-08T03:46:01.270Z,17.70
2022-10-08T03:48:31.128Z,17.80
2022-10-08T03:51:00.389Z,17.80
2022-10-08T03:53:29.252Z,17.70
2022-10-08T03:55:57.574Z,17.80
2022-10-08T03:58:25.939Z,17.80
2022-10-08T04:00:57.832Z,17.70
2022-10-08T04:03:26.655Z,17.70
2022-10-08T04:05:56.495Z,17.80
2022-10-08T04:08:25.374Z,17.80
2022-10-08T04:10:53.961Z,17.80
2022-10-08T04:13:22.356Z,17.70
2022-10-08T04:15:51.592Z,17.60
2022-10-08T04:18:19.998Z,17.60
2022-10-08T04:20:48.424Z,17.50
2022-10-08T04:23:18.246Z,17.50
2022-10-08T04:25:52.917Z,17.40
2022-10-08T04:28:22.489Z,17.30
2022-10-08T04:30:57.901Z,17.20
2022-10-08T04:33:26.643Z,17.20
2022-10-08T04:35:59.100Z,17.10
2022-10-08T04:38:29.846Z,17.00
2022-10-08T04:41:05.505Z,17.00
2022-10-08T04:43:34.250Z,17.10
2022-10-08T04:46:02.771Z,17.10
2022-10-08T04:48:31.231Z,17.10
2022-10-08T04:51:00.762Z,17.10
2022-10-08T04:53:30.759Z,17.10
2022-10-08T04:56:07.963Z,17.10
2022-10-08T04:58:36.373Z,17.10
2022-10-08T05:01:05.138Z,17.10
2022-10-08T05:03:36.724Z,17.10
2022-10-08T05:06:05.675Z,17.00
2022-10-08T05:08:35.804Z,17.00
2022-10-08T05:11:04.475Z,17.00
2022-10-08T05:13:32.857Z,17.00
2022-10-08T05:16:03.908Z,17.00
2022-10-08T05:18:32.437Z,16.90
2022-10-08T05:21:03.467Z,17.00
2022-10-08T05:23:31.838Z,16.90
2022-10-08T05:26:02.431Z,16.90
2022-10-08T05:28:30.923Z,16.90
2022-10-08T05:31:02.732Z,16.90
2022-10-08T05:33:31.264Z,16.90
2022-10-08T05:36:03.287Z,16.80
2022-10-08T05:38:34.933Z,16.80
2022-10-08T05:41:12.360Z,16.80
2022-10-08T05:43:40.976Z,16.90
2022-10-08T05:46:09.818Z,16.90
2022-10-08T05:48:38.474Z,16.90
2022-10-08T05:51:07.438Z,16.90
2022-10-08T05:53:36.297Z,16.90
2022-10-08T05:56:05.319Z,16.90
2022-10-08T05:58:36.454Z,16.90
2022-10-08T06:01:05.868Z,16.90
2022-10-08T06:03:34.482Z,16.90
2022-10-08T06:06:03.481Z,17.00
2022-10-08T06:08:32.570Z,17.00
2022-10-08T06:11:01.175Z,16.90
2022-10-08T06:13:29.583Z,17.00
2022-10-08T06:16:00.122Z,17.00
2022-10-08T06:18:29.246Z,17.00
2022-10-08T06:20:57.861Z,17.10
2022-10-08T06:23:26.377Z,17.20
2022-10-08T06:25:54.732Z,17.20
2022-10-08T06:28:23.165Z,17.30
2022-10-08T06:30:51.609Z,17.30
2022-10-08T06:33:21.330Z,17.40
2022-10-08T06:35:49.669Z,17.40
2022-10-08T06:38:18.094Z,17.50
2022-10-08T06:40:46.603Z,17.50
2022-10-08T06:43:15.518Z,17.60
2022-10-08T06:45:44.683Z,17.60
2022-10-08T06:48:13.715Z,17.60
2022-10-08T06:50:43.426Z,17.60
2022-10-08T06:53:11.992Z,17.70
2022-10-08T06:55:40.418Z,17.70
2022-10-08T06:58:08.890Z,17.80
2022-10-08T07:00:37.333Z,17.80
2022-10-08T07:03:05.919Z,17.90
2022-10-08T07:05:34.496Z,17.90
2022-10-08T07:08:04.370Z,18.00
2022-10-08T07:10:34.340Z,18.10
2022-10-08T07:13:02.764Z,18.20
2022-10-08T07:15:32.920Z,18.20
2022-10-08T07:18:01.369Z,18.30
2022-10-08T07:20:29.759Z,18.40
2022-10-08T07:22:58.212Z,18.50
2022-10-08T07:25:28.073Z,18.60
2022-10-08T07:27:56.447Z,18.70
2022-10-08T07:30:24.991Z,18.80
2022-10-08T07:32:53.592Z,18.90
2022-10-08T07:35:22.004Z,19.00
2022-10-08T07:37:50.462Z,19.10
2022-10-08T07:40:18.891Z,19.30
2022-10-08T07:42:49.071Z,19.50
2022-10-08T07:45:17.921Z,19.60
2022-10-08T07:47:46.491Z,19.80
2022-10-08T07:50:14.974Z,19.90
2022-10-08T07:52:43.432Z,20.10
2022-10-08T07:55:11.782Z,20.30
2022-10-08T07:57:40.113Z,20.50
2022-10-08T08:00:10.961Z,20.70
2022-10-08T08:02:39.429Z,20.90
2022-10-08T08:05:08.338Z,21.20
2022-10-08T08:07:36.736Z,21.50
2022-10-08T08:10:05.435Z,21.80
2022-10-08T08:12:33.795Z,22.10
2022-10-08T08:15:02.219Z,22.30
2022-10-08T08:17:31.976Z,22.60
2022-10-08T08:20:00.349Z,22.80
2022-10-08T08:22:28.741Z,23.00
2022-10-08T08:24:57.085Z,23.20
2022-10-08T08:27:25.553Z,23.30
2022-10-08T08:29:53.909Z,23.40
2022-10-08T08:32:27.578Z,23.30
2022-10-08T08:34:58.341Z,23.50
2022-10-08T08:37:26.663Z,23.60
2022-10-08T08:39:55.158Z,23.50
2022-10-08T08:42:44.478Z,23.40
2022-10-08T08:45:44.653Z,23.30
2022-10-08T08:48:08.642Z,23.10
2022-10-08T08:50:40.809Z,22.90
2022-10-08T08:53:10.627Z,22.80
2022-10-08T08:55:40.589Z,22.60
2022-10-08T08:58:18.435Z,22.70
2022-10-08T09:00:48.623Z,23.00
2022-10-08T09:03:20.207Z,22.90
2022-10-08T09:05:52.167Z,22.70
2022-10-08T09:08:22.269Z,22.50
2022-10-08T09:10:55.321Z,22.50
2022-10-08T09:13:26.780Z,22.40
2022-10-08T09:15:56.438Z,22.50
2022-10-08T09:18:25.276Z,22.40
2022-10-08T09:20:55.080Z,22.50
2022-10-08T09:23:24.301Z,22.50
2022-10-08T09:25:55.651Z,22.60
2022-10-08T09:28:44.940Z,22.40
2022-10-08T09:31:25.266Z,22.40
2022-10-08T09:33:58.570Z,22.30
2022-10-08T09:36:36.260Z,22.20
2022-10-08T09:39:06.802Z,22.20
2022-10-08T09:41:35.397Z,22.20
2022-10-08T09:44:12.409Z,22.20
2022-10-08T09:46:40.757Z,22.20
2022-10-08T09:49:22.543Z,22.10
2022-10-08T09:51:52.746Z,22.00
2022-10-08T09:54:24.720Z,22.00
2022-10-08T09:56:54.060Z,22.00
2022-10-08T09:59:23.843Z,22.10
2022-10-08T10:01:53.217Z,22.10
2022-10-08T10:04:26.568Z,22.20
2022-10-08T10:06:56.745Z,22.10
2022-10-08T10:09:27.587Z,22.20
2022-10-08T10:11:58.200Z,22.30
2022-10-08T10:14:27.596Z,22.30
2022-10-08T10:16:59.386Z,22.30
2022-10-08T10:19:31.929Z,22.20
2022-10-08T10:22:04.054Z,22.20
2022-10-08T10:24:37.376Z,22.30
2022-10-08T10:27:08.708Z,22.20
2022-10-08T10:29:43.811Z,22.20
2022-10-08T10:32:18.711Z,22.10
2022-10-08T10:34:53.437Z,22.00
2022-10-08T10:37:31.036Z,22.10
2022-10-08T10:40:03.994Z,22.10
2022-10-08T10:42:35.222Z,22.00
2022-10-08T10:45:07.738Z,22.00
2022-10-08T10:47:36.123Z,22.00
2022-10-08T10:50:04.740Z,22.00
2022-10-08T10:52:40.113Z,22.20
2022-10-08T10:55:19.593Z,22.10
2022-10-08T10:57:56.456Z,22.10
2022-10-08T11:00:27.532Z,22.30
2022-10-08T11:02:58.663Z,22.40
2022-10-08T11:05:28.006Z,22.50
2022-10-08T11:08:12.172Z,22.50
2022-10-08T11:10:45.653Z,22.60
2022-10-08T11:13:22.323Z,22.50
2022-10-08T11:15:57.034Z,22.40
2022-10-08T11:18:30.721Z,22.50
2022-10-08T11:21:06.757Z,22.50
2022-10-08T11:23:52.840Z,22.60
2022-10-08T11:26:26.082Z,22.50
2022-10-08T11:29:00.936Z,22.50
2022-10-08T11:31:34.528Z,22.40
2022-10-08T11:34:03.738Z,22.50
2022-10-08T11:36:36.567Z,22.40
2022-10-08T11:39:10.917Z,22.20
2022-10-08T11:41:44.167Z,22.20
2022-10-08T11:44:13.921Z,22.30
2022-10-08T11:46:42.366Z,22.20
2022-10-08T11:49:29.140Z,22.30
2022-10-08T11:51:57.560Z,22.30
2022-10-08T11:54:31.208Z,22.30
2022-10-08T11:57:14.348Z,22.30
2022-10-08T11:59:43.470Z,22.30
2022-10-08T12:02:26.221Z,22.30
2022-10-08T12:04:55.823Z,22.20
2022-10-08T12:07:31.707Z,22.40
2022-10-08T12:10:23.892Z,22.30
2022-10-08T12:13:23.294Z,22.10
2022-10-08T12:16:04.842Z,22.00
2022-10-08T12:18:48.241Z,22.00
2022-10-08T12:21:34.966Z,22.00
2022-10-08T12:24:03.445Z,22.20
2022-10-08T12:26:31.916Z,22.20
2022-10-08T12:29:00.948Z,22.00
2022-10-08T12:31:32.130Z,21.90
2022-10-08T12:34:02.648Z,21.90
2022-10-08T12:36:34.957Z,22.00
2022-10-08T12:39:05.132Z,21.90
2022-10-08T12:41:40.093Z,22.00
2022-10-08T12:44:10.706Z,22.00
2022-10-08T12:46:45.834Z,21.90
2022-10-08T12:49:19.187Z,21.80
2022-10-08T12:51:51.324Z,21.80
2022-10-08T12:54:21.088Z,21.80
2022-10-08T12:56:50.361Z,21.80
2022-10-08T12:59:19.739Z,21.90
2022-10-08T13:01:54.229Z,22.00
2022-10-08T13:04:23.364Z,21.90
2022-10-08T13:06:52.748Z,21.80
2022-10-08T13:09:28.446Z,22.00
2022-10-08T13:12:02.929Z,22.10
2022-10-08T13:14:33.321Z,22.20
2022-10-08T13:17:03.411Z,22.20
2022-10-08T13:19:33.644Z,22.20
2022-10-08T13:22:05.196Z,22.10
2022-10-08T13:24:37.753Z,22.10
2022-10-08T13:27:06.774Z,22.00
2022-10-08T13:29:36.024Z,21.90
2022-10-08T13:32:07.658Z,21.90
2022-10-08T13:34:40.956Z,21.80
2022-10-08T13:37:10.415Z,22.00
2022-10-08T13:39:40.225Z,22.00
2022-10-08T13:42:09.762Z,22.00
2022-10-08T13:44:38.945Z,22.10
2022-10-08T13:47:10.653Z,22.10
2022-10-08T13:49:39.183Z,22.00
2022-10-08T13:52:08.033Z,21.90
2022-10-08T13:54:40.245Z,21.70
2022-10-08T13:57:11.156Z,21.70
2022-10-08T13:59:39.580Z,21.80
2022-10-08T14:02:11.392Z,21.90
2022-10-08T14:04:39.815Z,22.10
2022-10-08T14:07:14.116Z,21.90
2022-10-08T14:09:42.541Z,21.90
2022-10-08T14:12:11.223Z,21.80
2022-10-08T14:14:39.647Z,21.90
2022-10-08T14:17:09.427Z,21.90
2022-10-08T14:19:37.809Z,22.00
2022-10-08T14:22:06.276Z,22.00
2022-10-08T14:24:34.613Z,22.00
2022-10-08T14:27:07.454Z,21.90
2022-10-08T14:29:36.718Z,21.90
2022-10-08T14:32:05.641Z,21.90
2022-10-08T14:34:35.593Z,22.00
2022-10-08T14:37:04.373Z,22.00
2022-10-08T14:39:32.826Z,21.80
2022-10-08T14:42:01.193Z,21.70
2022-10-08T14:44:29.634Z,21.60
2022-10-08T14:46:58.156Z,21.50
2022-10-08T14:49:26.501Z,21.50
2022-10-08T14:51:56.278Z,21.50
2022-10-08T14:54:25.900Z,21.40
2022-10-08T14:56:54.404Z,21.50
2022-10-08T14:59:23.051Z,21.40
2022-10-08T15:01:51.513Z,21.40
2022-10-08T15:04:20.059Z,21.40
2022-10-08T15:06:48.506Z,21.40
2022-10-08T15:09:18.270Z,21.40
2022-10-08T15:11:46.707Z,21.30
2022-10-08T15:14:15.743Z,21.30
2022-10-08T15:16:44.233Z,21.30
2022-10-08T15:19:12.800Z,21.40
2022-10-08T15:21:41.166Z,21.40
2022-10-08T15:24:09.681Z,21.30
2022-10-08T15:26:39.484Z,21.30
2022-10-08T15:29:07.865Z,21.40
2022-10-08T15:31:36.278Z,21.40
2022-10-08T15:34:04.752Z,21.30
2022-10-08T15:36:34.105Z,21.20
2022-10-08T15:39:03.297Z,21.30
2022-10-08T15:41:35.013Z,21.20
2022-10-08T15:44:07.624Z,21.30
2022-10-08T15:46:37.565Z,21.30
2022-10-08T15:49:06.438Z,21.30
2022-10-08T15:51:34.860Z,21.30
2022-10-08T15:54:03.557Z,21.00
2022-10-08T15:56:32.180Z,21.10
2022-10-08T15:59:00.901Z,21.00
2022-10-08T16:01:29.751Z,21.00
2022-10-08T16:04:00.187Z,21.10
2022-10-08T16:06:29.490Z,21.10
2022-10-08T16:08:58.403Z,21.10
2022-10-08T16:11:27.606Z,21.10
2022-10-08T16:13:56.954Z,21.20
2022-10-08T16:16:25.368Z,21.10
2022-10-08T16:18:56.336Z,21.00
2022-10-08T16:21:26.602Z,21.00
2022-10-08T16:23:54.999Z,20.90
2022-10-08T16:26:23.652Z,20.90
2022-10-08T16:28:55.157Z,20.90
2022-10-08T16:31:24.124Z,20.90
2022-10-08T16:33:55.658Z,20.80
2022-10-08T16:36:24.147Z,20.70
2022-10-08T16:38:53.921Z,20.70
2022-10-08T16:41:23.332Z,20.70
2022-10-08T16:43:52.814Z,20.70
2022-10-08T16:46:22.630Z,20.60
2022-10-08T16:48:54.092Z,20.60
2022-10-08T16:51:22.957Z,20.50
2022-10-08T16:53:52.029Z,20.60
2022-10-08T16:56:22.605Z,20.50
2022-10-08T16:58:52.299Z,20.60
2022-10-08T17:01:21.247Z,20.50
2022-10-08T17:03:50.374Z,20.50
2022-10-08T17:06:19.393Z,20.50
2022-10-08T17:08:48.085Z,20.50
2022-10-08T17:11:16.496Z,20.50
2022-10-08T17:13:46.856Z,20.50
2022-10-08T17:16:15.802Z,20.50
2022-10-08T17:18:44.449Z,20.50
2022-10-08T17:21:13.324Z,20.60
2022-10-08T17:23:41.644Z,20.60
2022-10-08T17:26:10.995Z,20.60
2022-10-08T17:28:40.809Z,20.60
2022-10-08T17:31:12.623Z,20.50
2022-10-08T17:33:41.235Z,20.60
2022-10-08T17:36:11.796Z,20.60
2022-10-08T17:38:41.444Z,20.60
2022-10-08T17:41:14.051Z,20.60
2022-10-08T17:43:42.861Z,20.60
2022-10-08T17:46:13.517Z,20.60
2022-10-08T17:48:41.981Z,20.50
2022-10-08T17:51:11.183Z,20.50
2022-10-08T17:53:39.616Z,20.50
2022-10-08T17:56:08.636Z,20.50
2022-10-08T17:58:37.279Z,20.50
2022-10-08T18:01:08.900Z,20.50
2022-10-08T18:03:39.480Z,20.40
2022-10-08T18:06:09.406Z,20.40
2022-10-08T18:08:37.826Z,20.40
2022-10-08T18:11:06.893Z,20.40
2022-10-08T18:13:35.650Z,20.40
2022-10-08T18:16:04.733Z,20.40
2022-10-08T18:18:33.651Z,20.40
2022-10-08T18:21:03.628Z,20.40
2022-10-08T18:23:32.710Z,20.40
2022-10-08T18:26:10.880Z,20.40
2022-10-08T18:28:39.300Z,20.40
2022-10-08T18:31:08.327Z,20.40
2022-10-08T18:33:37.674Z,20.40
2022-10-08T18:36:14.420Z,20.30
2022-10-08T18:38:43.371Z,20.30
2022-10-08T18:41:12.717Z,20.30
2022-10-08T18:43:41.082Z,20.30
2022-10-08T18:46:09.918Z,20.30
2022-10-08T18:48:38.668Z,20.30
2022-10-08T18:51:07.386Z,20.30
2022-10-08T18:53:38.463Z,20.30
2022-10-08T18:56:08.721Z,20.20
2022-10-08T18:58:37.568Z,20.20
2022-10-08T19:01:06.349Z,20.20
2022-10-08T19:03:34.745Z,20.20
2022-10-08T19:06:03.057Z,20.20
2022-10-08T19:08:31.431Z,20.20
2022-10-08T19:11:08.760Z,20.10
2022-10-08T19:13:37.154Z,20.10
2022-10-08T19:16:05.927Z,20.10
2022-10-08T19:18:34.356Z,20.10
2022-10-08T19:21:07.436Z,20.10
2022-10-08T19:23:35.832Z,20.10
2022-10-08T19:26:05.997Z,20.10
2022-10-08T19:28:37.079Z,20.10
2022-10-08T19:31:12.499Z,20.10
2022-10-08T19:33:40.926Z,20.10
2022-10-08T19:36:09.404Z,20.10
2022-10-08T19:38:37.794Z,20.10
2022-10-08T19:41:11.175Z,20.10
2022-10-08T19:43:39.501Z,20.10
2022-10-08T19:46:07.896Z,20.10
2022-10-08T19:48:36.322Z,20.00
2022-10-08T19:51:05.340Z,20.00
2022-10-08T19:53:34.117Z,19.90
2022-10-08T19:56:04.545Z,19.90
2022-10-08T19:58:34.336Z,19.90
2022-10-08T20:01:03.493Z,19.90
2022-10-08T20:03:31.909Z,19.80
2022-10-08T20:06:02.561Z,19.80
2022-10-08T20:08:31.027Z,19.80
2022-10-08T20:11:02.699Z,19.80
2022-10-08T20:13:31.084Z,19.80
2022-10-08T20:16:04.683Z,19.70
2022-10-08T20:18:33.168Z,19.70
2022-10-08T20:21:02.139Z,19.70
2022-10-08T20:23:30.506Z,19.70
2022-10-08T20:26:08.083Z,19.60
2022-10-08T20:28:36.617Z,19.60
2022-10-08T20:31:16.366Z,19.50
2022-10-08T20:33:45.377Z,19.40
2022-10-08T20:36:14.804Z,19.40
2022-10-08T20:38:43.552Z,19.30
2022-10-08T20:41:11.895Z,19.30
2022-10-08T20:43:40.429Z,19.20
2022-10-08T20:46:10.585Z,19.20
2022-10-08T20:48:41.274Z,19.10
2022-10-08T20:51:10.737Z,19.10
2022-10-08T20:53:39.243Z,19.10
2022-10-08T20:56:08.276Z,19.10
2022-10-08T20:58:36.857Z,19.10
2022-10-08T21:01:06.712Z,19.10
2022-10-08T21:03:36.239Z,19.10
2022-10-08T21:06:06.474Z,19.10
2022-10-08T21:08:36.963Z,19.10
2022-10-08T21:11:06.327Z,19.10
2022-10-08T21:13:35.616Z,19.10
2022-10-08T21:16:04.822Z,19.00
2022-10-08T21:18:33.546Z,19.00
2022-10-08T21:21:02.350Z,19.00
2022-10-08T21:23:32.223Z,19.00
2022-10-08T21:26:07.174Z,19.00
2022-10-08T21:28:35.719Z,19.00
2022-10-08T21:31:04.599Z,18.90
2022-10-08T21:33:35.589Z,18.90
2022-10-08T21:36:04.220Z,18.80
2022-10-08T21:38:34.432Z,18.80
2022-10-08T21:41:06.178Z,18.90
2022-10-08T21:43:34.642Z,18.90
2022-10-08T21:46:03.157Z,19.00
2022-10-08T21:48:31.954Z,19.00
2022-10-08T21:51:00.809Z,19.00
2022-10-08T21:53:30.062Z,19.00
2022-10-08T21:56:00.561Z,18.90
2022-10-08T21:58:29.679Z,18.90
2022-10-08T22:00:58.117Z,18.80
2022-10-08T22:03:26.560Z,18.80
2022-10-08T22:05:56.693Z,18.80
2022-10-08T22:08:25.867Z,18.80
2022-10-08T22:10:54.545Z,18.80
2022-10-08T22:13:24.682Z,18.90
2022-10-08T22:15:53.616Z,19.00
2022-10-08T22:18:22.507Z,18.90
2022-10-08T22:20:51.051Z,18.90
2022-10-08T22:23:19.865Z,18.80
2022-10-08T22:25:53.025Z,18.80
2022-10-08T22:28:21.501Z,18.70
2022-10-08T22:30:51.362Z,18.70
2022-10-08T22:33:20.014Z,18.70
2022-10-08T22:35:48.422Z,18.70
2022-10-08T22:38:16.840Z,18.70
2022-10-08T22:40:45.358Z,18.70
2022-10-08T22:43:13.718Z,18.80
2022-10-08T22:45:42.606Z,18.80
2022-10-08T22:48:12.457Z,18.80
2022-10-08T22:50:40.821Z,18.80
2022-10-08T22:53:09.158Z,18.80
2022-10-08T22:55:40.790Z,18.70
2022-10-08T22:58:09.253Z,18.70
2022-10-08T23:00:37.716Z,18.70
2022-10-08T23:03:06.180Z,18.70
2022-10-08T23:05:36.106Z,18.70
2022-10-08T23:08:04.555Z,18.70
2022-10-08T23:10:32.957Z,18.60
2022-10-08T23:13:01.314Z,18.50
2022-10-08T23:15:29.706Z,18.50
2022-10-08T23:17:58.045Z,18.50
2022-10-08T23:20:26.442Z,18.50
2022-10-08T23:22:56.154Z,18.50
2022-10-08T23:25:24.573Z,18.40
2022-10-08T23:27:52.953Z,18.40
2022-10-08T23:30:42.068Z,18.50
2022-10-08T23:33:09.723Z,18.50
2022-10-08T23:35:38.064Z,18.50
2022-10-08T23:38:08.176Z,18.50
2022-10-08T23:40:36.867Z,18.50
2022-10-08T23:43:05.473Z,18.50
2022-10-08T23:45:33.886Z,18.40
2022-10-08T23:48:02.319Z,18.40
2022-10-08T23:50:30.823Z,18.40
2022-10-08T23:52:59.294Z,18.30
2022-10-08T23:55:29.121Z,18.30
2022-10-08T23:57:57.564Z,18.30
